sensor_id;sensor_type;location;lat;lon;timestamp;P1;durP1;ratioP1;P2;durP2;ratioP2
14306;SDS011;7237;49.500;11.400;2023-02-28T00:00:36;3.17;;;2.20;;
14306;SDS011;7237;49.500;11.400;2023-02-28T00:03:05;2.23;;;2.00;;
14306;SDS011;7237;49.500;11.400;2023-02-28T00:05:32;4.47;;;2.30;;
14306;SDS011;7237;49.500;11.400;2023-02-28T00:07:59;2.93;;;2.03;;
14306;SDS011;7237;49.500;11.400;2023-02-28T00:10:27;2.27;;;2.03;;
14306;SDS011;7237;49.500;11.400;2023-02-28T00:12:58;2.40;;;1.93;;
14306;SDS011;7237;49.500;11.400;2023-02-28T00:15:25;3.77;;;2.30;;
14306;SDS011;7237;49.500;11.400;2023-02-28T00:17:53;2.43;;;1.93;;
14306;SDS011;7237;49.500;11.400;2023-02-28T00:20:21;2.43;;;2.07;;
14306;SDS011;7237;49.500;11.400;2023-02-28T00:22:49;1.93;;;1.60;;
14306;SDS011;7237;49.500;11.400;2023-02-28T00:25:17;2.30;;;2.10;;
14306;SDS011;7237;49.500;11.400;2023-02-28T00:27:44;1.80;;;1.67;;
14306;SDS011;7237;49.500;11.400;2023-02-28T00:30:12;2.20;;;1.90;;
14306;SDS011;7237;49.500;11.400;2023-02-28T00:32:40;3.00;;;2.10;;
14306;SDS011;7237;49.500;11.400;2023-02-28T00:35:07;2.60;;;2.10;;
14306;SDS011;7237;49.500;11.400;2023-02-28T00:37:36;3.80;;;2.33;;
14306;SDS011;7237;49.500;11.400;2023-02-28T00:40:03;2.20;;;1.87;;
14306;SDS011;7237;49.500;11.400;2023-02-28T00:42:31;3.00;;;2.07;;
14306;SDS011;7237;49.500;11.400;2023-02-28T00:44:58;2.20;;;2.00;;
14306;SDS011;7237;49.500;11.400;2023-02-28T00:47:25;1.87;;;1.77;;
14306;SDS011;7237;49.500;11.400;2023-02-28T00:49:53;2.80;;;2.10;;
14306;SDS011;7237;49.500;11.400;2023-02-28T00:52:20;2.67;;;1.90;;
14306;SDS011;7237;49.500;11.400;2023-02-28T00:54:48;2.40;;;2.00;;
14306;SDS011;7237;49.500;11.400;2023-02-28T00:57:15;2.10;;;1.90;;
14306;SDS011;7237;49.500;11.400;2023-02-28T00:59:42;2.30;;;2.10;;
14306;SDS011;7237;49.500;11.400;2023-02-28T01:02:09;2.70;;;2.10;;
14306;SDS011;7237;49.500;11.400;2023-02-28T01:04:37;2.57;;;2.37;;
14306;SDS011;7237;49.500;11.400;2023-02-28T01:07:04;3.13;;;1.90;;
14306;SDS011;7237;49.500;11.400;2023-02-28T01:09:31;2.70;;;1.93;;
14306;SDS011;7237;49.500;11.400;2023-02-28T01:11:59;4.47;;;2.10;;
14306;SDS011;7237;49.500;11.400;2023-02-28T01:14:26;2.60;;;1.83;;
14306;SDS011;7237;49.500;11.400;2023-02-28T01:16:53;3.03;;;1.80;;
14306;SDS011;7237;49.500;11.400;2023-02-28T01:19:20;2.93;;;2.30;;
14306;SDS011;7237;49.500;11.400;2023-02-28T01:21:47;3.10;;;2.47;;
14306;SDS011;7237;49.500;11.400;2023-02-28T01:24:14;5.00;;;2.70;;
14306;SDS011;7237;49.500;11.400;2023-02-28T01:26:41;2.20;;;2.00;;
14306;SDS011;7237;49.500;11.400;2023-02-28T01:29:10;4.47;;;2.47;;
14306;SDS011;7237;49.500;11.400;2023-02-28T01:31:37;2.60;;;2.10;;
14306;SDS011;7237;49.500;11.400;2023-02-28T01:34:04;2.60;;;2.10;;
14306;SDS011;7237;49.500;11.400;2023-02-28T01:36:31;2.10;;;1.90;;
14306;SDS011;7237;49.500;11.400;2023-02-28T01:38:58;2.43;;;2.10;;
14306;SDS011;7237;49.500;11.400;2023-02-28T01:41:26;2.83;;;2.07;;
14306;SDS011;7237;49.500;11.400;2023-02-28T01:43:54;2.57;;;2.07;;
14306;SDS011;7237;49.500;11.400;2023-02-28T01:46:23;3.20;;;2.37;;
14306;SDS011;7237;49.500;11.400;2023-02-28T01:48:51;2.57;;;2.30;;
14306;SDS011;7237;49.500;11.400;2023-02-28T01:51:19;2.20;;;2.00;;
14306;SDS011;7237;49.500;11.400;2023-02-28T01:53:49;3.93;;;2.23;;
14306;SDS011;7237;49.500;11.400;2023-02-28T01:56:18;2.90;;;2.20;;
14306;SDS011;7237;49.500;11.400;2023-02-28T01:58:46;2.00;;;1.80;;
14306;SDS011;7237;49.500;11.400;2023-02-28T02:01:13;2.50;;;1.97;;
14306;SDS011;7237;49.500;11.400;2023-02-28T02:03:47;3.20;;;2.30;;
14306;SDS011;7237;49.500;11.400;2023-02-28T02:06:20;1.97;;;1.83;;
14306;SDS011;7237;49.500;11.400;2023-02-28T02:08:47;3.00;;;2.33;;
14306;SDS011;7237;49.500;11.400;2023-02-28T02:11:14;2.67;;;2.30;;
14306;SDS011;7237;49.500;11.400;2023-02-28T02:13:51;2.37;;;2.17;;
14306;SDS011;7237;49.500;11.400;2023-02-28T02:16:28;2.60;;;2.40;;
14306;SDS011;7237;49.500;11.400;2023-02-28T02:19:06;2.53;;;2.00;;
14306;SDS011;7237;49.500;11.400;2023-02-28T02:21:46;2.37;;;2.10;;
14306;SDS011;7237;49.500;11.400;2023-02-28T02:24:29;2.93;;;2.30;;
14306;SDS011;7237;49.500;11.400;2023-02-28T02:27:04;2.50;;;2.10;;
14306;SDS011;7237;49.500;11.400;2023-02-28T02:29:41;3.17;;;2.17;;
14306;SDS011;7237;49.500;11.400;2023-02-28T02:32:18;2.60;;;2.40;;
14306;SDS011;7237;49.500;11.400;2023-02-28T02:34:53;3.37;;;2.30;;
14306;SDS011;7237;49.500;11.400;2023-02-28T02:37:25;3.30;;;2.30;;
14306;SDS011;7237;49.500;11.400;2023-02-28T02:39:58;2.70;;;2.40;;
14306;SDS011;7237;49.500;11.400;2023-02-28T02:42:28;2.33;;;2.13;;
14306;SDS011;7237;49.500;11.400;2023-02-28T02:44:57;3.53;;;2.40;;
14306;SDS011;7237;49.500;11.400;2023-02-28T02:47:27;3.13;;;2.57;;
14306;SDS011;7237;49.500;11.400;2023-02-28T02:49:57;3.50;;;2.50;;
14306;SDS011;7237;49.500;11.400;2023-02-28T02:52:28;2.60;;;2.40;;
14306;SDS011;7237;49.500;11.400;2023-02-28T02:54:56;3.07;;;2.40;;
14306;SDS011;7237;49.500;11.400;2023-02-28T02:57:25;3.83;;;2.53;;
14306;SDS011;7237;49.500;11.400;2023-02-28T02:59:54;4.23;;;2.87;;
14306;SDS011;7237;49.500;11.400;2023-02-28T03:02:22;3.33;;;2.50;;
14306;SDS011;7237;49.500;11.400;2023-02-28T03:04:51;4.03;;;2.90;;
14306;SDS011;7237;49.500;11.400;2023-02-28T03:07:20;2.83;;;2.53;;
14306;SDS011;7237;49.500;11.400;2023-02-28T03:09:51;6.40;;;3.17;;
14306;SDS011;7237;49.500;11.400;2023-02-28T03:12:18;3.70;;;2.90;;
14306;SDS011;7237;49.500;11.400;2023-02-28T03:14:51;2.90;;;2.50;;
14306;SDS011;7237;49.500;11.400;2023-02-28T03:17:38;3.70;;;2.60;;
14306;SDS011;7237;49.500;11.400;2023-02-28T03:20:09;3.13;;;2.60;;
14306;SDS011;7237;49.500;11.400;2023-02-28T03:22:47;2.57;;;2.37;;
14306;SDS011;7237;49.500;11.400;2023-02-28T03:25:20;4.20;;;3.47;;
14306;SDS011;7237;49.500;11.400;2023-02-28T03:27:49;3.23;;;2.77;;
14306;SDS011;7237;49.500;11.400;2023-02-28T03:30:22;3.97;;;2.83;;
14306;SDS011;7237;49.500;11.400;2023-02-28T03:32:51;3.80;;;3.10;;
14306;SDS011;7237;49.500;11.400;2023-02-28T03:35:20;3.43;;;2.87;;
14306;SDS011;7237;49.500;11.400;2023-02-28T03:37:49;4.57;;;2.97;;
14306;SDS011;7237;49.500;11.400;2023-02-28T03:40:19;3.67;;;3.10;;
14306;SDS011;7237;49.500;11.400;2023-02-28T03:42:47;3.97;;;3.20;;
14306;SDS011;7237;49.500;11.400;2023-02-28T03:45:16;3.53;;;3.03;;
14306;SDS011;7237;49.500;11.400;2023-02-28T03:47:45;3.00;;;2.70;;
14306;SDS011;7237;49.500;11.400;2023-02-28T03:50:14;3.00;;;2.50;;
14306;SDS011;7237;49.500;11.400;2023-02-28T03:52:44;3.27;;;2.97;;
14306;SDS011;7237;49.500;11.400;2023-02-28T03:55:14;3.93;;;2.87;;
14306;SDS011;7237;49.500;11.400;2023-02-28T03:57:43;3.30;;;2.73;;
14306;SDS011;7237;49.500;11.400;2023-02-28T04:02:43;4.50;;;2.60;;
14306;SDS011;7237;49.500;11.400;2023-02-28T04:05:10;3.13;;;2.80;;
14306;SDS011;7237;49.500;11.400;2023-02-28T04:07:37;5.67;;;2.97;;
14306;SDS011;7237;49.500;11.400;2023-02-28T04:10:04;5.13;;;3.20;;
14306;SDS011;7237;49.500;11.400;2023-02-28T04:12:33;4.00;;;2.83;;
14306;SDS011;7237;49.500;11.400;2023-02-28T04:15:00;3.13;;;2.73;;
14306;SDS011;7237;49.500;11.400;2023-02-28T04:17:27;4.83;;;2.67;;
14306;SDS011;7237;49.500;11.400;2023-02-28T04:19:54;4.73;;;3.43;;
14306;SDS011;7237;49.500;11.400;2023-02-28T04:22:22;3.10;;;2.80;;
14306;SDS011;7237;49.500;11.400;2023-02-28T04:24:50;3.50;;;3.10;;
14306;SDS011;7237;49.500;11.400;2023-02-28T04:27:19;4.00;;;3.10;;
14306;SDS011;7237;49.500;11.400;2023-02-28T04:29:48;3.70;;;3.30;;
14306;SDS011;7237;49.500;11.400;2023-02-28T04:32:15;4.50;;;3.43;;
14306;SDS011;7237;49.500;11.400;2023-02-28T04:34:42;3.73;;;3.10;;
14306;SDS011;7237;49.500;11.400;2023-02-28T04:37:09;3.60;;;3.30;;
14306;SDS011;7237;49.500;11.400;2023-02-28T04:39:36;3.67;;;3.30;;
14306;SDS011;7237;49.500;11.400;2023-02-28T04:42:03;6.20;;;3.50;;
14306;SDS011;7237;49.500;11.400;2023-02-28T04:44:30;4.13;;;3.37;;
14306;SDS011;7237;49.500;11.400;2023-02-28T04:46:59;4.07;;;3.17;;
14306;SDS011;7237;49.500;11.400;2023-02-28T04:49:26;3.60;;;3.17;;
14306;SDS011;7237;49.500;11.400;2023-02-28T04:51:53;6.53;;;3.70;;
14306;SDS011;7237;49.500;11.400;2023-02-28T04:54:20;3.53;;;3.13;;
14306;SDS011;7237;49.500;11.400;2023-02-28T04:56:47;3.80;;;3.17;;
14306;SDS011;7237;49.500;11.400;2023-02-28T04:59:15;4.63;;;3.43;;
14306;SDS011;7237;49.500;11.400;2023-02-28T05:01:44;4.30;;;3.27;;
14306;SDS011;7237;49.500;11.400;2023-02-28T05:04:13;4.00;;;3.47;;
14306;SDS011;7237;49.500;11.400;2023-02-28T05:06:40;4.03;;;3.20;;
14306;SDS011;7237;49.500;11.400;2023-02-28T05:09:07;5.23;;;4.17;;
14306;SDS011;7237;49.500;11.400;2023-02-28T05:11:36;4.17;;;3.53;;
14306;SDS011;7237;49.500;11.400;2023-02-28T05:14:04;3.77;;;3.47;;
14306;SDS011;7237;49.500;11.400;2023-02-28T05:16:32;5.00;;;3.40;;
14306;SDS011;7237;49.500;11.400;2023-02-28T05:18:59;4.20;;;3.70;;
14306;SDS011;7237;49.500;11.400;2023-02-28T05:21:28;4.37;;;3.37;;
14306;SDS011;7237;49.500;11.400;2023-02-28T05:23:56;4.07;;;3.67;;
14306;SDS011;7237;49.500;11.400;2023-02-28T05:26:24;3.93;;;3.37;;
14306;SDS011;7237;49.500;11.400;2023-02-28T05:28:52;4.23;;;3.67;;
14306;SDS011;7237;49.500;11.400;2023-02-28T05:31:20;3.77;;;3.20;;
14306;SDS011;7237;49.500;11.400;2023-02-28T05:33:47;4.47;;;3.50;;
14306;SDS011;7237;49.500;11.400;2023-02-28T05:36:14;7.17;;;4.10;;
14306;SDS011;7237;49.500;11.400;2023-02-28T05:38:43;3.93;;;3.53;;
14306;SDS011;7237;49.500;11.400;2023-02-28T05:41:12;5.00;;;3.73;;
14306;SDS011;7237;49.500;11.400;2023-02-28T05:43:39;5.67;;;3.70;;
14306;SDS011;7237;49.500;11.400;2023-02-28T05:46:06;4.73;;;4.00;;
14306;SDS011;7237;49.500;11.400;2023-02-28T05:48:34;4.30;;;3.53;;
14306;SDS011;7237;49.500;11.400;2023-02-28T05:51:02;6.40;;;4.63;;
14306;SDS011;7237;49.500;11.400;2023-02-28T05:53:29;3.83;;;3.50;;
14306;SDS011;7237;49.500;11.400;2023-02-28T05:55:58;4.27;;;3.87;;
14306;SDS011;7237;49.500;11.400;2023-02-28T05:58:25;4.90;;;4.20;;
14306;SDS011;7237;49.500;11.400;2023-02-28T06:00:55;4.03;;;3.53;;
14306;SDS011;7237;49.500;11.400;2023-02-28T06:03:23;6.30;;;4.10;;
14306;SDS011;7237;49.500;11.400;2023-02-28T06:05:50;3.90;;;3.60;;
14306;SDS011;7237;49.500;11.400;2023-02-28T06:08:17;5.73;;;4.00;;
14306;SDS011;7237;49.500;11.400;2023-02-28T06:10:44;6.33;;;4.40;;
14306;SDS011;7237;49.500;11.400;2023-02-28T06:13:12;5.60;;;3.90;;
14306;SDS011;7237;49.500;11.400;2023-02-28T06:15:40;6.10;;;4.63;;
14306;SDS011;7237;49.500;11.400;2023-02-28T06:18:07;4.53;;;3.97;;
14306;SDS011;7237;49.500;11.400;2023-02-28T06:20:34;4.30;;;3.73;;
14306;SDS011;7237;49.500;11.400;2023-02-28T06:23:01;5.33;;;4.23;;
14306;SDS011;7237;49.500;11.400;2023-02-28T06:25:28;5.67;;;4.13;;
14306;SDS011;7237;49.500;11.400;2023-02-28T06:27:55;4.93;;;4.17;;
14306;SDS011;7237;49.500;11.400;2023-02-28T06:30:24;5.13;;;4.30;;
14306;SDS011;7237;49.500;11.400;2023-02-28T06:32:54;5.27;;;4.30;;
14306;SDS011;7237;49.500;11.400;2023-02-28T06:35:22;5.30;;;4.17;;
14306;SDS011;7237;49.500;11.400;2023-02-28T06:37:49;5.73;;;4.73;;
14306;SDS011;7237;49.500;11.400;2023-02-28T06:40:16;7.53;;;5.07;;
14306;SDS011;7237;49.500;11.400;2023-02-28T06:42:43;4.57;;;4.17;;
14306;SDS011;7237;49.500;11.400;2023-02-28T06:45:10;4.83;;;4.03;;
14306;SDS011;7237;49.500;11.400;2023-02-28T06:47:39;6.10;;;4.40;;
14306;SDS011;7237;49.500;11.400;2023-02-28T06:50:07;4.47;;;3.80;;
14306;SDS011;7237;49.500;11.400;2023-02-28T06:52:34;4.77;;;4.20;;
14306;SDS011;7237;49.500;11.400;2023-02-28T06:55:02;7.33;;;4.77;;
14306;SDS011;7237;49.500;11.400;2023-02-28T06:57:30;4.80;;;4.30;;
14306;SDS011;7237;49.500;11.400;2023-02-28T06:59:57;4.67;;;4.17;;
14306;SDS011;7237;49.500;11.400;2023-02-28T07:02:25;4.83;;;4.37;;
14306;SDS011;7237;49.500;11.400;2023-02-28T07:04:53;4.73;;;4.10;;
14306;SDS011;7237;49.500;11.400;2023-02-28T07:07:20;4.97;;;4.30;;
14306;SDS011;7237;49.500;11.400;2023-02-28T07:09:47;5.67;;;4.80;;
14306;SDS011;7237;49.500;11.400;2023-02-28T07:12:14;5.53;;;4.57;;
14306;SDS011;7237;49.500;11.400;2023-02-28T07:14:42;4.47;;;4.07;;
14306;SDS011;7237;49.500;11.400;2023-02-28T07:17:09;5.10;;;4.40;;
14306;SDS011;7237;49.500;11.400;2023-02-28T07:19:37;5.10;;;4.23;;
14306;SDS011;7237;49.500;11.400;2023-02-28T07:22:05;4.73;;;3.60;;
14306;SDS011;7237;49.500;11.400;2023-02-28T07:24:32;4.53;;;4.10;;
14306;SDS011;7237;49.500;11.400;2023-02-28T07:27:00;5.57;;;4.17;;
14306;SDS011;7237;49.500;11.400;2023-02-28T07:29:27;5.23;;;4.20;;
14306;SDS011;7237;49.500;11.400;2023-02-28T07:31:54;5.97;;;4.30;;
14306;SDS011;7237;49.500;11.400;2023-02-28T07:34:21;5.83;;;4.53;;
14306;SDS011;7237;49.500;11.400;2023-02-28T07:36:49;6.30;;;4.73;;
14306;SDS011;7237;49.500;11.400;2023-02-28T07:39:19;5.93;;;4.83;;
14306;SDS011;7237;49.500;11.400;2023-02-28T07:41:46;5.87;;;4.30;;
14306;SDS011;7237;49.500;11.400;2023-02-28T07:44:14;5.57;;;3.87;;
14306;SDS011;7237;49.500;11.400;2023-02-28T07:46:41;5.60;;;4.17;;
14306;SDS011;7237;49.500;11.400;2023-02-28T07:49:08;5.57;;;4.63;;
14306;SDS011;7237;49.500;11.400;2023-02-28T07:51:35;6.17;;;4.73;;
14306;SDS011;7237;49.500;11.400;2023-02-28T07:54:02;5.83;;;5.00;;
14306;SDS011;7237;49.500;11.400;2023-02-28T07:56:31;4.77;;;3.80;;
14306;SDS011;7237;49.500;11.400;2023-02-28T07:58:58;5.13;;;4.63;;
14306;SDS011;7237;49.500;11.400;2023-02-28T08:01:26;5.63;;;4.27;;
14306;SDS011;7237;49.500;11.400;2023-02-28T08:03:53;5.03;;;4.40;;
14306;SDS011;7237;49.500;11.400;2023-02-28T08:06:22;6.17;;;4.40;;
14306;SDS011;7237;49.500;11.400;2023-02-28T08:08:49;5.93;;;4.60;;
14306;SDS011;7237;49.500;11.400;2023-02-28T08:11:17;5.23;;;4.37;;
14306;SDS011;7237;49.500;11.400;2023-02-28T08:13:46;5.30;;;4.63;;
14306;SDS011;7237;49.500;11.400;2023-02-28T08:16:13;5.80;;;5.20;;
14306;SDS011;7237;49.500;11.400;2023-02-28T08:18:46;5.97;;;4.50;;
14306;SDS011;7237;49.500;11.400;2023-02-28T08:21:13;5.13;;;4.63;;
14306;SDS011;7237;49.500;11.400;2023-02-28T08:23:40;6.10;;;4.47;;
14306;SDS011;7237;49.500;11.400;2023-02-28T08:26:07;4.70;;;4.07;;
14306;SDS011;7237;49.500;11.400;2023-02-28T08:28:34;5.23;;;4.20;;
14306;SDS011;7237;49.500;11.400;2023-02-28T08:31:02;5.37;;;4.27;;
14306;SDS011;7237;49.500;11.400;2023-02-28T08:33:33;7.00;;;4.27;;
14306;SDS011;7237;49.500;11.400;2023-02-28T08:36:00;4.30;;;3.77;;
14306;SDS011;7237;49.500;11.400;2023-02-28T08:38:27;4.67;;;4.13;;
14306;SDS011;7237;49.500;11.400;2023-02-28T08:40:57;4.67;;;4.07;;
14306;SDS011;7237;49.500;11.400;2023-02-28T08:43:24;5.27;;;4.13;;
14306;SDS011;7237;49.500;11.400;2023-02-28T08:45:51;5.87;;;4.50;;
14306;SDS011;7237;49.500;11.400;2023-02-28T08:48:20;6.00;;;4.50;;
14306;SDS011;7237;49.500;11.400;2023-02-28T08:50:54;5.13;;;4.30;;
14306;SDS011;7237;49.500;11.400;2023-02-28T08:53:21;4.63;;;4.13;;
14306;SDS011;7237;49.500;11.400;2023-02-28T08:55:55;4.80;;;4.23;;
14306;SDS011;7237;49.500;11.400;2023-02-28T08:58:22;6.90;;;4.53;;
14306;SDS011;7237;49.500;11.400;2023-02-28T09:00:49;4.97;;;4.03;;
14306;SDS011;7237;49.500;11.400;2023-02-28T09:03:16;5.03;;;4.07;;
14306;SDS011;7237;49.500;11.400;2023-02-28T09:05:52;4.00;;;3.60;;
14306;SDS011;7237;49.500;11.400;2023-02-28T09:08:19;4.83;;;3.93;;
14306;SDS011;7237;49.500;11.400;2023-02-28T09:10:46;4.23;;;3.77;;
14306;SDS011;7237;49.500;11.400;2023-02-28T09:13:13;7.33;;;4.23;;
14306;SDS011;7237;49.500;11.400;2023-02-28T09:15:40;4.47;;;4.07;;
14306;SDS011;7237;49.500;11.400;2023-02-28T09:18:07;4.50;;;3.70;;
14306;SDS011;7237;49.500;11.400;2023-02-28T09:20:36;7.03;;;4.53;;
14306;SDS011;7237;49.500;11.400;2023-02-28T09:23:05;4.93;;;3.80;;
14306;SDS011;7237;49.500;11.400;2023-02-28T09:25:33;4.37;;;3.67;;
14306;SDS011;7237;49.500;11.400;2023-02-28T09:28:00;3.97;;;3.30;;
14306;SDS011;7237;49.500;11.400;2023-02-28T09:30:27;6.80;;;4.03;;
14306;SDS011;7237;49.500;11.400;2023-02-28T09:32:54;4.67;;;3.80;;
14306;SDS011;7237;49.500;11.400;2023-02-28T09:35:21;4.20;;;3.63;;
14306;SDS011;7237;49.500;11.400;2023-02-28T09:37:49;3.87;;;3.10;;
14306;SDS011;7237;49.500;11.400;2023-02-28T09:40:18;5.88;;;3.90;;
14306;SDS011;7237;49.500;11.400;2023-02-28T09:42:46;4.63;;;3.23;;
14306;SDS011;7237;49.500;11.400;2023-02-28T09:45:16;3.90;;;3.50;;
14306;SDS011;7237;49.500;11.400;2023-02-28T09:47:46;3.60;;;3.30;;
14306;SDS011;7237;49.500;11.400;2023-02-28T09:50:17;6.07;;;4.03;;
14306;SDS011;7237;49.500;11.400;2023-02-28T09:52:45;6.43;;;3.70;;
14306;SDS011;7237;49.500;11.400;2023-02-28T09:55:18;4.17;;;3.67;;
14306;SDS011;7237;49.500;11.400;2023-02-28T09:57:47;3.53;;;3.23;;
14306;SDS011;7237;49.500;11.400;2023-02-28T10:00:17;4.57;;;3.53;;
14306;SDS011;7237;49.500;11.400;2023-02-28T10:02:50;4.53;;;3.70;;
14306;SDS011;7237;49.500;11.400;2023-02-28T10:05:23;4.33;;;3.70;;
14306;SDS011;7237;49.500;11.400;2023-02-28T10:07:58;3.93;;;3.53;;
14306;SDS011;7237;49.500;11.400;2023-02-28T10:10:32;4.70;;;3.30;;
14306;SDS011;7237;49.500;11.400;2023-02-28T10:13:01;4.50;;;4.10;;
14306;SDS011;7237;49.500;11.400;2023-02-28T10:15:30;4.53;;;3.77;;
14306;SDS011;7237;49.500;11.400;2023-02-28T10:17:59;4.43;;;3.70;;
14306;SDS011;7237;49.500;11.400;2023-02-28T10:20:26;7.37;;;3.80;;
14306;SDS011;7237;49.500;11.400;2023-02-28T10:23:01;5.00;;;3.60;;
14306;SDS011;7237;49.500;11.400;2023-02-28T10:25:32;4.00;;;3.57;;
14306;SDS011;7237;49.500;11.400;2023-02-28T10:28:07;5.53;;;4.03;;
14306;SDS011;7237;49.500;11.400;2023-02-28T10:30:36;4.07;;;2.90;;
14306;SDS011;7237;49.500;11.400;2023-02-28T10:33:05;5.10;;;3.57;;
14306;SDS011;7237;49.500;11.400;2023-02-28T10:35:32;4.37;;;3.97;;
14306;SDS011;7237;49.500;11.400;2023-02-28T10:38:00;5.97;;;4.23;;
14306;SDS011;7237;49.500;11.400;2023-02-28T10:40:29;5.10;;;3.80;;
14306;SDS011;7237;49.500;11.400;2023-02-28T10:42:58;5.87;;;4.03;;
14306;SDS011;7237;49.500;11.400;2023-02-28T10:45:26;5.27;;;3.90;;
14306;SDS011;7237;49.500;11.400;2023-02-28T10:47:56;4.90;;;3.93;;
14306;SDS011;7237;49.500;11.400;2023-02-28T10:50:32;4.43;;;3.83;;
14306;SDS011;7237;49.500;11.400;2023-02-28T10:53:07;4.57;;;3.80;;
14306;SDS011;7237;49.500;11.400;2023-02-28T10:55:37;5.00;;;3.80;;
14306;SDS011;7237;49.500;11.400;2023-02-28T10:58:07;4.07;;;3.63;;
14306;SDS011;7237;49.500;11.400;2023-02-28T11:00:46;4.60;;;3.60;;
14306;SDS011;7237;49.500;11.400;2023-02-28T11:03:23;6.33;;;3.97;;
14306;SDS011;7237;49.500;11.400;2023-02-28T11:05:50;4.53;;;3.97;;
14306;SDS011;7237;49.500;11.400;2023-02-28T11:08:17;4.63;;;3.83;;
14306;SDS011;7237;49.500;11.400;2023-02-28T11:10:46;4.00;;;3.60;;
14306;SDS011;7237;49.500;11.400;2023-02-28T11:13:16;4.83;;;3.80;;
14306;SDS011;7237;49.500;11.400;2023-02-28T11:15:50;4.83;;;4.00;;
14306;SDS011;7237;49.500;11.400;2023-02-28T11:18:22;4.70;;;3.47;;
14306;SDS011;7237;49.500;11.400;2023-02-28T11:20:50;4.97;;;3.83;;
14306;SDS011;7237;49.500;11.400;2023-02-28T11:23:17;4.30;;;3.90;;
14306;SDS011;7237;49.500;11.400;2023-02-28T11:25:46;4.53;;;3.80;;
14306;SDS011;7237;49.500;11.400;2023-02-28T11:28:24;5.00;;;4.00;;
14306;SDS011;7237;49.500;11.400;2023-02-28T11:31:04;5.73;;;4.20;;
14306;SDS011;7237;49.500;11.400;2023-02-28T11:33:32;4.27;;;3.60;;
14306;SDS011;7237;49.500;11.400;2023-02-28T11:36:01;4.93;;;3.53;;
14306;SDS011;7237;49.500;11.400;2023-02-28T11:38:28;6.60;;;4.20;;
14306;SDS011;7237;49.500;11.400;2023-02-28T11:41:04;5.33;;;3.43;;
14306;SDS011;7237;49.500;11.400;2023-02-28T11:43:35;3.80;;;3.40;;
14306;SDS011;7237;49.500;11.400;2023-02-28T11:46:09;5.57;;;3.30;;
14306;SDS011;7237;49.500;11.400;2023-02-28T11:48:42;5.13;;;3.83;;
14306;SDS011;7237;49.500;11.400;2023-02-28T11:51:12;5.10;;;4.03;;
14306;SDS011;7237;49.500;11.400;2023-02-28T11:53:46;5.90;;;3.40;;
14306;SDS011;7237;49.500;11.400;2023-02-28T11:56:17;4.77;;;3.73;;
14306;SDS011;7237;49.500;11.400;2023-02-28T11:58:49;4.37;;;3.80;;
14306;SDS011;7237;49.500;11.400;2023-02-28T12:01:27;6.10;;;4.03;;
14306;SDS011;7237;49.500;11.400;2023-02-28T12:03:58;5.50;;;3.70;;
14306;SDS011;7237;49.500;11.400;2023-02-28T12:06:31;4.30;;;3.70;;
14306;SDS011;7237;49.500;11.400;2023-02-28T12:09:02;3.90;;;3.50;;
14306;SDS011;7237;49.500;11.400;2023-02-28T12:11:39;3.80;;;3.43;;
14306;SDS011;7237;49.500;11.400;2023-02-28T12:14:21;4.93;;;4.20;;
14306;SDS011;7237;49.500;11.400;2023-02-28T12:16:55;5.80;;;4.40;;
14306;SDS011;7237;49.500;11.400;2023-02-28T12:19:26;5.70;;;3.97;;
14306;SDS011;7237;49.500;11.400;2023-02-28T12:22:06;5.97;;;4.60;;
14306;SDS011;7237;49.500;11.400;2023-02-28T12:24:39;5.70;;;4.60;;
14306;SDS011;7237;49.500;11.400;2023-02-28T12:27:09;8.23;;;4.50;;
14306;SDS011;7237;49.500;11.400;2023-02-28T12:29:40;5.83;;;4.37;;
14306;SDS011;7237;49.500;11.400;2023-02-28T12:32:11;5.13;;;4.27;;
14306;SDS011;7237;49.500;11.400;2023-02-28T12:34:41;6.80;;;5.10;;
14306;SDS011;7237;49.500;11.400;2023-02-28T12:37:12;6.73;;;5.00;;
14306;SDS011;7237;49.500;11.400;2023-02-28T12:39:42;8.10;;;4.57;;
14306;SDS011;7237;49.500;11.400;2023-02-28T12:42:11;5.07;;;4.20;;
14306;SDS011;7237;49.500;11.400;2023-02-28T12:44:40;5.10;;;4.40;;
14306;SDS011;7237;49.500;11.400;2023-02-28T12:47:12;4.77;;;4.27;;
14306;SDS011;7237;49.500;11.400;2023-02-28T12:49:41;4.97;;;4.30;;
14306;SDS011;7237;49.500;11.400;2023-02-28T12:52:11;6.27;;;4.93;;
14306;SDS011;7237;49.500;11.400;2023-02-28T12:54:42;5.13;;;4.63;;
14306;SDS011;7237;49.500;11.400;2023-02-28T12:57:12;6.67;;;4.73;;
14306;SDS011;7237;49.500;11.400;2023-02-28T12:59:43;5.10;;;4.17;;
14306;SDS011;7237;49.500;11.400;2023-02-28T13:02:27;5.13;;;4.57;;
14306;SDS011;7237;49.500;11.400;2023-02-28T13:10:42;5.33;;;4.50;;
14306;SDS011;7237;49.500;11.400;2023-02-28T13:13:17;5.70;;;4.57;;
14306;SDS011;7237;49.500;11.400;2023-02-28T13:15:58;5.00;;;4.47;;
14306;SDS011;7237;49.500;11.400;2023-02-28T13:18:30;4.53;;;4.10;;
14306;SDS011;7237;49.500;11.400;2023-02-28T13:20:58;5.73;;;4.70;;
14306;SDS011;7237;49.500;11.400;2023-02-28T13:23:37;6.17;;;5.40;;
14306;SDS011;7237;49.500;11.400;2023-02-28T13:26:05;6.50;;;4.73;;
14306;SDS011;7237;49.500;11.400;2023-02-28T13:34:16;5.68;;;4.53;;
14306;SDS011;7237;49.500;11.400;2023-02-28T13:36:43;6.70;;;4.83;;
14306;SDS011;7237;49.500;11.400;2023-02-28T13:42:23;5.97;;;5.30;;
14306;SDS011;7237;49.500;11.400;2023-02-28T13:47:45;4.90;;;4.40;;
14306;SDS011;7237;49.500;11.400;2023-02-28T13:50:23;6.60;;;4.90;;
14306;SDS011;7237;49.500;11.400;2023-02-28T13:52:57;5.10;;;4.50;;
14306;SDS011;7237;49.500;11.400;2023-02-28T13:55:27;7.27;;;4.90;;
14306;SDS011;7237;49.500;11.400;2023-02-28T13:57:58;6.40;;;5.00;;
14306;SDS011;7237;49.500;11.400;2023-02-28T14:00:35;5.83;;;4.57;;
14306;SDS011;7237;49.500;11.400;2023-02-28T14:03:21;5.47;;;4.43;;
14306;SDS011;7237;49.500;11.400;2023-02-28T14:08:32;6.77;;;4.80;;
14306;SDS011;7237;49.500;11.400;2023-02-28T14:11:02;5.73;;;4.70;;
14306;SDS011;7237;49.500;11.400;2023-02-28T14:13:37;6.73;;;5.00;;
14306;SDS011;7237;49.500;11.400;2023-02-28T14:16:09;5.80;;;5.00;;
14306;SDS011;7237;49.500;11.400;2023-02-28T14:18:37;5.33;;;4.80;;
14306;SDS011;7237;49.500;11.400;2023-02-28T14:21:11;5.80;;;4.60;;
14306;SDS011;7237;49.500;11.400;2023-02-28T14:23:49;5.80;;;4.77;;
14306;SDS011;7237;49.500;11.400;2023-02-28T14:26:26;5.47;;;4.73;;
14306;SDS011;7237;49.500;11.400;2023-02-28T14:29:01;5.87;;;4.47;;
14306;SDS011;7237;49.500;11.400;2023-02-28T14:31:37;5.43;;;4.93;;
14306;SDS011;7237;49.500;11.400;2023-02-28T14:34:17;6.23;;;4.97;;
14306;SDS011;7237;49.500;11.400;2023-02-28T14:36:48;5.37;;;4.53;;
14306;SDS011;7237;49.500;11.400;2023-02-28T14:39:19;6.67;;;4.43;;
14306;SDS011;7237;49.500;11.400;2023-02-28T14:41:46;6.00;;;5.00;;
14306;SDS011;7237;49.500;11.400;2023-02-28T14:44:14;7.07;;;4.83;;
14306;SDS011;7237;49.500;11.400;2023-02-28T14:46:42;5.87;;;4.87;;
14306;SDS011;7237;49.500;11.400;2023-02-28T14:49:12;5.03;;;4.50;;
14306;SDS011;7237;49.500;11.400;2023-02-28T14:51:40;5.40;;;4.80;;
14306;SDS011;7237;49.500;11.400;2023-02-28T14:54:07;6.13;;;4.57;;
14306;SDS011;7237;49.500;11.400;2023-02-28T14:56:36;6.30;;;5.23;;
14306;SDS011;7237;49.500;11.400;2023-02-28T14:59:04;5.43;;;4.77;;
14306;SDS011;7237;49.500;11.400;2023-02-28T15:01:32;6.80;;;5.10;;
14306;SDS011;7237;49.500;11.400;2023-02-28T15:04:00;6.13;;;4.80;;
14306;SDS011;7237;49.500;11.400;2023-02-28T15:06:27;6.00;;;4.97;;
14306;SDS011;7237;49.500;11.400;2023-02-28T15:09:07;6.67;;;4.73;;
14306;SDS011;7237;49.500;11.400;2023-02-28T15:11:36;7.13;;;4.77;;
14306;SDS011;7237;49.500;11.400;2023-02-28T15:14:03;6.43;;;5.27;;
14306;SDS011;7237;49.500;11.400;2023-02-28T15:16:31;5.77;;;4.60;;
14306;SDS011;7237;49.500;11.400;2023-02-28T15:19:01;5.33;;;4.77;;
14306;SDS011;7237;49.500;11.400;2023-02-28T15:21:30;7.30;;;4.60;;
14306;SDS011;7237;49.500;11.400;2023-02-28T15:23:59;6.40;;;4.93;;